createdAt,value
2018-01-05T00:01:50.283Z,11.70
2018-01-05T00:04:18.297Z,11.70
2018-01-05T00:06:47.055Z,11.70
2018-01-05T00:09:15.043Z,11.60
2018-01-05T00:11:43.819Z,11.60
2018-01-05T00:14:11.801Z,11.60
2018-01-05T00:16:40.551Z,11.60
2018-01-05T00:19:09.303Z,11.60
2018-01-05T00:21:37.306Z,11.60
2018-01-05T00:24:05.322Z,11.60
2018-01-05T00:26:34.074Z,11.60
2018-01-05T00:29:02.066Z,11.50
2018-01-05T00:31:30.831Z,11.50
2018-01-05T00:33:58.827Z,11.50
2018-01-05T00:36:27.607Z,11.50
2018-01-05T00:38:55.706Z,11.50
2018-01-05T00:41:23.673Z,11.50
2018-01-05T00:43:51.670Z,11.50
2018-01-05T00:46:19.695Z,11.50
2018-01-05T00:48:48.436Z,11.40
2018-01-05T00:51:16.415Z,11.40
2018-01-05T00:53:44.385Z,11.40
2018-01-05T00:56:12.419Z,11.40
2018-01-05T00:58:40.408Z,11.40
2018-01-05T01:01:08.376Z,11.40
2018-01-05T01:03:36.358Z,11.30
2018-01-05T01:06:04.371Z,11.30
2018-01-05T01:08:33.143Z,11.30
2018-01-05T01:11:02.017Z,11.30
2018-01-05T01:13:30.008Z,11.30
2018-01-05T01:15:58.830Z,11.30
2018-01-05T01:18:26.817Z,11.20
2018-01-05T01:20:54.842Z,11.20
2018-01-05T01:23:23.610Z,11.20
2018-01-05T01:25:51.604Z,11.20
2018-01-05T01:28:20.359Z,11.10
2018-01-05T01:30:48.362Z,11.10
2018-01-05T01:33:17.144Z,11.10
2018-01-05T01:35:45.949Z,11.10
2018-01-05T01:38:13.927Z,11.10
2018-01-05T01:40:41.920Z,11.10
2018-01-05T01:43:09.912Z,11.10
2018-01-05T01:45:37.899Z,11.10
2018-01-05T01:48:06.644Z,11.00
2018-01-05T01:50:34.643Z,11.00
2018-01-05T01:53:02.651Z,11.00
2018-01-05T01:55:30.654Z,11.00
2018-01-05T01:57:58.678Z,11.00
2018-01-05T02:00:27.447Z,11.00
2018-01-05T02:02:55.442Z,10.90
2018-01-05T02:05:24.186Z,10.90
2018-01-05T02:07:52.207Z,10.90
2018-01-05T02:10:20.219Z,10.90
2018-01-05T02:12:48.203Z,10.90
2018-01-05T02:15:16.254Z,10.90
2018-01-05T02:17:44.231Z,10.90
2018-01-05T02:20:12.204Z,10.90
2018-01-05T02:22:40.217Z,10.80
2018-01-05T02:25:08.242Z,10.80
2018-01-05T02:27:36.215Z,10.80
2018-01-05T02:30:04.247Z,10.80
2018-01-05T02:32:33.210Z,10.80
2018-01-05T02:35:01.944Z,10.70
2018-01-05T02:37:29.915Z,10.70
2018-01-05T02:39:58.655Z,10.70
2018-01-05T02:42:27.411Z,10.70
2018-01-05T02:44:55.430Z,10.70
2018-01-05T02:47:23.410Z,10.70
2018-01-05T02:49:51.432Z,10.70
2018-01-05T02:52:19.434Z,10.70
2018-01-05T02:54:47.472Z,10.70
2018-01-05T02:57:15.479Z,10.60
2018-01-05T02:59:43.450Z,10.60
2018-01-05T03:02:11.424Z,10.60
2018-01-05T03:04:39.394Z,10.60
2018-01-05T03:07:07.377Z,10.60
2018-01-05T03:09:35.363Z,10.60
2018-01-05T03:12:03.356Z,10.60
2018-01-05T03:14:31.357Z,10.60
2018-01-05T03:16:59.366Z,10.50
2018-01-05T03:19:27.370Z,10.50
2018-01-05T03:21:56.125Z,10.50
2018-01-05T03:24:24.206Z,10.50
2018-01-05T03:26:52.190Z,10.50
2018-01-05T03:29:20.215Z,10.50
2018-01-05T03:31:48.218Z,10.40
2018-01-05T03:34:16.220Z,10.40
2018-01-05T03:36:44.997Z,10.40
2018-01-05T03:39:13.776Z,10.40
2018-01-05T03:41:41.763Z,10.40
2018-01-05T03:44:10.511Z,10.40
2018-01-05T03:46:38.530Z,10.30
2018-01-05T03:49:06.539Z,10.30
2018-01-05T03:51:34.530Z,10.30
2018-01-05T03:54:02.516Z,10.30
2018-01-05T03:56:31.281Z,10.30
2018-01-05T03:58:59.267Z,10.30
2018-01-05T04:01:28.057Z,10.30
2018-01-05T04:03:56.840Z,10.30
2018-01-05T04:06:24.849Z,10.20
2018-01-05T04:08:52.827Z,10.20
2018-01-05T04:11:20.829Z,10.20
2018-01-05T04:13:48.839Z,10.20
2018-01-05T04:16:17.633Z,10.20
2018-01-05T04:18:45.623Z,10.10
2018-01-05T04:21:13.608Z,10.20
2018-01-05T04:23:41.597Z,10.10
2018-01-05T04:26:09.610Z,10.10
2018-01-05T04:28:38.374Z,10.10
2018-01-05T04:31:06.358Z,10.10
2018-01-05T04:33:35.110Z,10.10
2018-01-05T04:36:03.138Z,10.00
2018-01-05T04:38:31.127Z,10.10
2018-01-05T04:40:59.141Z,10.00
2018-01-05T04:43:27.909Z,10.00
2018-01-05T04:45:55.905Z,10.00
2018-01-05T04:48:24.679Z,10.00
2018-01-05T04:50:52.663Z,10.00
2018-01-05T04:53:21.440Z,9.90
2018-01-05T04:55:50.214Z,10.00
2018-01-05T04:58:18.198Z,9.90
2018-01-05T05:00:46.975Z,9.90
2018-01-05T05:03:15.049Z,9.90
2018-01-05T05:05:43.063Z,9.90
2018-01-05T05:08:11.052Z,9.90
2018-01-05T05:10:39.024Z,9.90
2018-01-05T05:13:06.983Z,9.90
2018-01-05T05:15:34.981Z,9.90
2018-01-05T05:18:02.963Z,9.80
2018-01-05T05:20:30.936Z,9.80
2018-01-05T05:22:58.923Z,9.80
2018-01-05T05:25:27.777Z,9.80
2018-01-05T05:27:55.764Z,9.80
2018-01-05T05:30:24.565Z,9.80
2018-01-05T05:32:53.307Z,9.70
2018-01-05T05:35:21.334Z,9.70
2018-01-05T05:37:49.327Z,9.70
2018-01-05T05:40:17.302Z,9.70
2018-01-05T05:42:45.301Z,9.70
2018-01-05T05:45:13.302Z,9.70
2018-01-05T05:47:42.076Z,9.60
2018-01-05T05:50:10.858Z,9.60
2018-01-05T05:52:38.871Z,9.60
2018-01-05T05:55:06.842Z,9.60
2018-01-05T05:57:34.830Z,9.60
2018-01-05T06:00:02.815Z,9.60
2018-01-05T06:02:30.803Z,9.60
2018-01-05T06:04:58.776Z,9.60
2018-01-05T06:07:26.809Z,9.60
2018-01-05T06:09:54.802Z,9.60
2018-01-05T06:12:22.789Z,9.60
2018-01-05T06:14:51.565Z,9.50
2018-01-05T06:17:19.561Z,9.50
2018-01-05T06:19:48.329Z,9.50
2018-01-05T06:22:16.314Z,9.50
2018-01-05T06:24:45.083Z,9.50
2018-01-05T06:27:13.067Z,9.50
2018-01-05T06:29:41.817Z,9.40
2018-01-05T06:32:09.807Z,9.50
2018-01-05T06:34:37.822Z,9.50
2018-01-05T06:37:05.829Z,9.50
2018-01-05T06:39:33.833Z,9.40
2018-01-05T06:42:02.602Z,9.40
2018-01-05T06:44:30.587Z,9.40
2018-01-05T06:46:59.358Z,9.40
2018-01-05T06:49:27.402Z,9.40
2018-01-05T06:51:55.397Z,9.40
2018-01-05T06:54:23.396Z,9.30
2018-01-05T06:56:51.372Z,9.40
2018-01-05T06:59:19.354Z,9.30
2018-01-05T07:01:47.334Z,9.30
2018-01-05T07:04:15.313Z,9.30
2018-01-05T07:06:43.284Z,9.30
2018-01-05T07:09:11.270Z,9.30
2018-01-05T07:11:39.274Z,9.30
2018-01-05T07:14:08.033Z,9.30
2018-01-05T07:16:36.015Z,9.20
2018-01-05T07:19:04.023Z,9.30
2018-01-05T07:21:32.029Z,9.30
2018-01-05T07:24:00.063Z,9.20
2018-01-05T07:26:28.059Z,9.20
2018-01-05T07:28:56.067Z,9.20
2018-01-05T07:31:24.841Z,9.20
2018-01-05T07:33:52.819Z,9.20
2018-01-05T07:36:20.839Z,9.20
2018-01-05T07:38:48.842Z,9.20
2018-01-05T07:41:16.842Z,9.20
2018-01-05T07:43:45.591Z,9.20
2018-01-05T07:46:13.573Z,9.20
2018-01-05T07:48:41.579Z,9.20
2018-01-05T07:51:09.560Z,9.20
2018-01-05T07:53:37.548Z,9.20
2018-01-05T07:56:05.518Z,9.10
2018-01-05T07:58:33.522Z,9.10
2018-01-05T08:01:01.569Z,9.10
2018-01-05T08:03:29.583Z,9.10
2018-01-05T08:05:58.326Z,9.10
2018-01-05T08:08:26.327Z,9.10
2018-01-05T08:10:54.307Z,9.20
2018-01-05T08:13:23.047Z,9.20
2018-01-05T08:15:51.025Z,9.20
2018-01-05T08:18:19.792Z,9.20
2018-01-05T08:20:47.792Z,9.10
2018-01-05T08:23:15.773Z,9.20
2018-01-05T08:25:43.783Z,9.20
2018-01-05T08:28:11.757Z,9.20
2018-01-05T08:30:39.736Z,9.20
2018-01-05T08:33:07.734Z,9.20
2018-01-05T08:35:35.705Z,9.30
2018-01-05T08:38:03.737Z,9.30
2018-01-05T08:40:31.746Z,9.30
2018-01-05T08:42:59.728Z,9.30
2018-01-05T08:45:27.794Z,9.40
2018-01-05T08:47:55.811Z,9.40
2018-01-05T08:50:23.812Z,9.40
2018-01-05T08:52:52.051Z,9.50
2018-01-05T08:55:20.110Z,9.50
2018-01-05T08:57:48.894Z,9.60
2018-01-05T09:00:17.721Z,9.60
2018-01-05T09:02:45.767Z,9.60
2018-01-05T09:05:13.911Z,9.60
2018-01-05T09:07:41.974Z,9.70
2018-01-05T09:10:09.979Z,9.80
2018-01-05T09:12:37.978Z,9.80
2018-01-05T09:15:05.969Z,9.90
2018-01-05T09:17:33.959Z,10.00
2018-01-05T09:20:02.732Z,10.10
2018-01-05T09:22:30.734Z,10.00
2018-01-05T09:24:59.510Z,10.20
2018-01-05T09:27:28.499Z,10.20
2018-01-05T09:29:56.504Z,10.20
2018-01-05T09:32:24.470Z,10.30
2018-01-05T09:34:52.494Z,10.30
2018-01-05T09:37:20.495Z,10.40
2018-01-05T09:39:49.282Z,10.50
2018-01-05T09:42:18.075Z,10.60
2018-01-05T09:44:46.090Z,10.50
2018-01-05T09:47:14.867Z,10.60
2018-01-05T09:49:42.869Z,10.60
2018-01-05T09:52:10.876Z,10.70
2018-01-05T09:54:38.887Z,10.80
2018-01-05T09:57:06.883Z,10.80
2018-01-05T09:59:34.851Z,10.80
2018-01-05T10:02:02.857Z,10.90
2018-01-05T10:04:30.846Z,10.90
2018-01-05T10:06:58.845Z,11.00
2018-01-05T10:09:26.875Z,11.00
2018-01-05T10:11:54.839Z,11.10
2018-01-05T10:14:22.830Z,11.10
2018-01-05T10:16:50.822Z,11.10
2018-01-05T10:19:18.825Z,11.20
2018-01-05T10:21:47.587Z,11.30
2018-01-05T10:24:15.630Z,11.20
2018-01-05T10:26:43.638Z,11.30
2018-01-05T10:29:11.641Z,11.30
2018-01-05T10:31:39.618Z,11.30
2018-01-05T10:34:07.605Z,11.40
2018-01-05T10:36:35.555Z,11.40
2018-01-05T10:39:03.732Z,11.50
2018-01-05T10:41:31.762Z,11.50
2018-01-05T10:43:59.766Z,11.50
2018-01-05T10:46:27.754Z,11.50
2018-01-05T10:48:55.753Z,11.60
2018-01-05T10:51:23.731Z,11.60
2018-01-05T10:53:52.545Z,11.70
2018-01-05T10:56:20.552Z,11.70
2018-01-05T10:58:48.549Z,11.70
2018-01-05T11:01:16.558Z,11.80
2018-01-05T11:03:44.537Z,11.80
2018-01-05T11:06:12.627Z,11.90
2018-01-05T11:08:40.634Z,11.90
2018-01-05T11:11:08.626Z,12.00
2018-01-05T11:13:37.385Z,12.10
2018-01-05T11:18:39.564Z,12.10
2018-01-05T11:21:07.572Z,12.10
2018-01-05T11:23:36.398Z,12.20
2018-01-05T11:26:04.382Z,12.20
2018-01-05T11:28:32.359Z,12.30
2018-01-05T11:31:00.366Z,12.30
2018-01-05T11:33:29.135Z,12.40
2018-01-05T11:35:57.123Z,12.40
2018-01-05T11:38:25.926Z,12.50
2018-01-05T11:40:53.938Z,12.40
2018-01-05T11:43:21.923Z,12.50
2018-01-05T11:45:49.921Z,12.50
2018-01-05T11:48:18.667Z,12.60
2018-01-05T11:50:46.638Z,12.60
2018-01-05T11:53:14.702Z,12.60
2018-01-05T11:55:42.843Z,12.70
2018-01-05T11:58:10.834Z,12.70
2018-01-05T12:00:38.820Z,12.70
2018-01-05T12:03:06.829Z,12.70
2018-01-05T12:05:35.576Z,12.80
2018-01-05T12:08:03.575Z,12.80
2018-01-05T12:10:32.395Z,12.90
2018-01-05T12:13:00.399Z,12.90
2018-01-05T12:15:28.448Z,13.00
2018-01-05T12:17:56.424Z,13.00
2018-01-05T12:20:24.422Z,13.00
2018-01-05T12:22:52.467Z,13.10
2018-01-05T12:25:20.446Z,13.10
2018-01-05T12:27:48.455Z,13.20
2018-01-05T12:30:17.222Z,13.30
2018-01-05T12:32:45.240Z,13.20
2018-01-05T12:35:13.241Z,13.30
2018-01-05T12:37:41.255Z,13.30
2018-01-05T12:40:10.011Z,13.40
2018-01-05T12:42:38.020Z,13.40
2018-01-05T12:45:06.063Z,13.40
2018-01-05T12:47:34.094Z,13.40
2018-01-05T12:50:02.114Z,13.50
2018-01-05T12:52:30.878Z,13.50
2018-01-05T12:54:59.022Z,13.50
2018-01-05T12:57:27.003Z,13.50
2018-01-05T12:59:54.992Z,13.50
2018-01-05T13:02:23.070Z,13.50
2018-01-05T13:04:51.069Z,13.50
2018-01-05T13:07:19.030Z,13.50
2018-01-05T13:09:47.853Z,13.60
2018-01-05T13:12:15.935Z,13.60
2018-01-05T13:14:43.925Z,13.60
2018-01-05T13:17:11.938Z,13.60
2018-01-05T13:19:39.955Z,13.60
2018-01-05T13:22:07.982Z,13.60
2018-01-05T13:24:35.991Z,13.60
2018-01-05T13:27:04.767Z,13.70
2018-01-05T13:29:32.799Z,13.60
2018-01-05T13:32:01.603Z,13.70
2018-01-05T13:34:29.607Z,13.70
2018-01-05T13:36:57.590Z,13.70
2018-01-05T13:39:25.622Z,13.70
2018-01-05T13:41:53.694Z,13.70
2018-01-05T13:44:21.709Z,13.70
2018-01-05T13:46:49.696Z,13.70
2018-01-05T13:49:18.459Z,13.70
2018-01-05T13:51:46.443Z,13.70
2018-01-05T13:54:14.427Z,13.70
2018-01-05T13:56:43.227Z,13.70
2018-01-05T13:59:11.199Z,13.70
2018-01-05T14:01:39.189Z,13.70
2018-01-05T14:04:07.243Z,13.70
2018-01-05T14:06:35.245Z,13.70
2018-01-05T14:09:03.326Z,13.70
2018-01-05T14:11:31.790Z,13.70
2018-01-05T14:13:59.758Z,13.70
2018-01-05T14:16:27.798Z,13.70
2018-01-05T14:18:55.891Z,13.70
2018-01-05T14:21:23.893Z,13.70
2018-01-05T14:23:51.891Z,13.70
2018-01-05T14:26:20.660Z,13.70
2018-01-05T14:28:48.639Z,13.70
2018-01-05T14:31:17.615Z,13.70
2018-01-05T14:33:45.619Z,13.70
2018-01-05T14:36:14.441Z,13.70
2018-01-05T14:38:42.420Z,13.70
2018-01-05T14:41:10.407Z,13.70
2018-01-05T14:43:38.467Z,13.70
2018-01-05T14:46:06.498Z,13.70
2018-01-05T14:48:34.500Z,13.70
2018-01-05T14:51:02.512Z,13.70
2018-01-05T14:53:31.252Z,13.70
2018-01-05T14:55:59.285Z,13.60
2018-01-05T14:58:28.039Z,13.60
2018-01-05T15:00:56.032Z,13.60
2018-01-05T15:03:24.851Z,13.60
2018-01-05T15:05:52.847Z,13.60
2018-01-05T15:08:20.859Z,13.60
2018-01-05T15:10:49.621Z,13.60
2018-01-05T15:13:17.638Z,13.60
2018-01-05T15:15:45.695Z,13.60
2018-01-05T15:18:13.743Z,13.50
2018-01-05T15:20:41.708Z,13.50
2018-01-05T15:23:09.763Z,13.50
2018-01-05T15:25:37.750Z,13.50
2018-01-05T15:28:06.084Z,13.50
2018-01-05T15:30:34.154Z,13.50
2018-01-05T15:33:02.190Z,13.40
2018-01-05T15:35:30.251Z,13.40
2018-01-05T15:37:59.024Z,13.40
2018-01-05T15:40:27.017Z,13.40
2018-01-05T15:42:55.761Z,13.30
2018-01-05T15:45:23.821Z,13.30
2018-01-05T15:47:51.804Z,13.30
2018-01-05T15:50:19.869Z,13.30
2018-01-05T15:52:47.935Z,13.30
2018-01-05T15:55:16.208Z,13.20
2018-01-05T15:57:44.190Z,13.20
2018-01-05T16:00:12.181Z,13.20
2018-01-05T16:02:40.159Z,13.20
2018-01-05T16:05:08.937Z,13.10
2018-01-05T16:07:36.954Z,13.10
2018-01-05T16:10:04.993Z,13.10
2018-01-05T16:12:33.786Z,13.00
2018-01-05T16:15:02.609Z,13.00
2018-01-05T16:17:30.592Z,13.00
2018-01-05T16:19:58.593Z,13.00
2018-01-05T16:22:26.591Z,12.90
2018-01-05T16:24:54.591Z,12.90
2018-01-05T16:27:22.590Z,12.90
2018-01-05T16:29:50.590Z,12.80
2018-01-05T16:32:19.922Z,12.80
2018-01-05T16:34:47.969Z,12.80
2018-01-05T16:37:15.982Z,12.70
2018-01-05T16:39:44.003Z,12.70
2018-01-05T16:42:12.775Z,12.60
2018-01-05T16:44:40.766Z,12.60
2018-01-05T16:47:08.776Z,12.60
2018-01-05T16:49:36.775Z,12.60
2018-01-05T16:52:04.766Z,12.60
2018-01-05T16:54:33.526Z,12.50
2018-01-05T16:57:01.538Z,12.50
2018-01-05T16:59:29.600Z,12.50
2018-01-05T17:01:58.405Z,12.40
2018-01-05T17:04:26.455Z,12.40
2018-01-05T17:06:55.237Z,12.40
2018-01-05T17:09:24.006Z,12.30
2018-01-05T17:11:52.044Z,12.30
2018-01-05T17:14:20.028Z,12.30
2018-01-05T17:16:48.054Z,12.30
2018-01-05T17:19:16.038Z,12.30
2018-01-05T17:21:44.086Z,12.20
2018-01-05T17:24:12.161Z,12.20
2018-01-05T17:26:40.170Z,12.20
2018-01-05T17:29:08.168Z,12.10
2018-01-05T17:31:36.182Z,12.10
2018-01-05T17:34:04.190Z,12.10
2018-01-05T17:36:32.189Z,12.10
2018-01-05T17:39:00.987Z,12.00
2018-01-05T17:41:28.983Z,12.00
2018-01-05T17:43:56.966Z,12.00
2018-01-05T17:46:24.976Z,12.00
2018-01-05T17:48:52.998Z,12.00
2018-01-05T17:51:21.030Z,11.90
2018-01-05T17:53:49.068Z,11.90
2018-01-05T17:56:17.082Z,11.90
2018-01-05T17:58:45.062Z,11.90
2018-01-05T18:01:13.072Z,11.80
2018-01-05T18:03:41.082Z,11.80
2018-01-05T18:06:09.867Z,11.80
2018-01-05T18:08:38.637Z,11.70
2018-01-05T18:11:06.607Z,11.80
2018-01-05T18:13:34.603Z,11.70
2018-01-05T18:16:02.818Z,11.70
2018-01-05T18:18:30.823Z,11.70
2018-01-05T18:20:58.818Z,11.70
2018-01-05T18:23:26.803Z,11.70
2018-01-05T18:25:54.902Z,11.60
2018-01-05T18:28:22.921Z,11.70
2018-01-05T18:30:50.963Z,11.60
2018-01-05T18:33:18.947Z,11.60
2018-01-05T18:35:47.700Z,11.60
2018-01-05T18:38:15.695Z,11.60
2018-01-05T18:40:43.704Z,11.60
2018-01-05T18:43:11.691Z,11.60
2018-01-05T18:45:39.698Z,11.60
2018-01-05T18:48:07.690Z,11.60
2018-01-05T18:50:36.435Z,11.50
2018-01-05T18:53:04.447Z,11.50
2018-01-05T18:55:33.194Z,11.50
2018-01-05T18:58:01.184Z,11.50
2018-01-05T19:00:29.171Z,11.50
2018-01-05T19:02:57.931Z,11.50
2018-01-05T19:05:25.930Z,11.50
2018-01-05T19:07:54.698Z,11.50
2018-01-05T19:10:23.475Z,11.50
2018-01-05T19:12:51.489Z,11.40
2018-01-05T19:15:19.463Z,11.40
2018-01-05T19:17:47.470Z,11.50
2018-01-05T19:20:15.479Z,11.40
2018-01-05T19:22:44.289Z,11.40
2018-01-05T19:25:12.330Z,11.40
2018-01-05T19:27:40.322Z,11.40
2018-01-05T19:30:08.314Z,11.40
2018-01-05T19:32:36.331Z,11.40
2018-01-05T19:35:04.335Z,11.40
2018-01-05T19:37:32.338Z,11.40
2018-01-05T19:40:00.358Z,11.30
2018-01-05T19:42:29.135Z,11.30
2018-01-05T19:44:57.905Z,11.30
2018-01-05T19:47:25.939Z,11.30
2018-01-05T19:49:53.911Z,11.30
2018-01-05T19:52:21.910Z,11.30
2018-01-05T19:54:49.911Z,11.30
2018-01-05T19:57:18.664Z,11.30
2018-01-05T19:59:48.608Z,11.30
2018-01-05T20:02:17.386Z,11.30
2018-01-05T20:04:45.374Z,11.30
2018-01-05T20:07:14.137Z,11.30
2018-01-05T20:09:42.138Z,11.30
2018-01-05T20:12:10.135Z,11.30
2018-01-05T20:14:38.095Z,11.30
2018-01-05T20:17:06.310Z,11.30
2018-01-05T20:19:34.368Z,11.30
2018-01-05T20:22:02.470Z,11.30
2018-01-05T20:24:30.511Z,11.30
2018-01-05T20:26:58.567Z,11.20
2018-01-05T20:29:26.555Z,11.30
2018-01-05T20:31:54.598Z,11.20
2018-01-05T20:34:22.614Z,11.20
2018-01-05T20:36:50.615Z,11.30
2018-01-05T20:39:18.646Z,11.20
2018-01-05T20:41:46.736Z,11.30
2018-01-05T20:44:15.505Z,11.20
2018-01-05T20:46:43.622Z,11.20
2018-01-05T20:49:11.612Z,11.20
2018-01-05T20:51:39.607Z,11.20
2018-01-05T20:54:07.833Z,11.20
2018-01-05T20:56:39.364Z,11.20
2018-01-05T20:59:08.202Z,11.20
2018-01-05T21:01:36.187Z,11.20
2018-01-05T21:04:04.199Z,11.20
2018-01-05T21:06:32.972Z,11.20
2018-01-05T21:09:01.156Z,11.10
2018-01-05T21:11:29.907Z,11.10
2018-01-05T21:13:57.956Z,11.10
2018-01-05T21:16:25.940Z,11.10
2018-01-05T21:18:54.014Z,11.10
2018-01-05T21:21:22.010Z,11.10
2018-01-05T21:23:49.982Z,11.10
2018-01-05T21:26:17.979Z,11.10
2018-01-05T21:28:45.989Z,11.10
2018-01-05T21:31:13.972Z,11.00
2018-01-05T21:33:42.030Z,11.00
2018-01-05T21:36:10.070Z,11.00
2018-01-05T21:38:38.090Z,11.00
2018-01-05T21:41:06.089Z,11.00
2018-01-05T21:43:34.836Z,10.90
2018-01-05T21:46:02.819Z,11.00
2018-01-05T21:48:30.793Z,10.90
2018-01-05T21:50:58.854Z,10.90
2018-01-05T21:53:26.885Z,10.90
2018-01-05T21:55:54.874Z,10.90
2018-01-05T21:58:22.853Z,10.90
2018-01-05T22:00:50.851Z,10.90
2018-01-05T22:03:19.621Z,10.80
2018-01-05T22:05:47.667Z,10.80
2018-01-05T22:08:15.675Z,10.80
2018-01-05T22:10:44.455Z,10.80
2018-01-05T22:13:12.479Z,10.80
2018-01-05T22:15:40.480Z,10.80
2018-01-05T22:18:08.477Z,10.80
2018-01-05T22:20:37.240Z,10.70
2018-01-05T22:23:05.461Z,10.70
2018-01-05T22:25:33.463Z,10.70
2018-01-05T22:28:01.455Z,10.70
2018-01-05T22:30:29.434Z,10.70
2018-01-05T22:32:58.211Z,10.70
2018-01-05T22:35:26.223Z,10.60
2018-01-05T22:37:54.234Z,10.60
2018-01-05T22:40:22.237Z,10.60
2018-01-05T22:42:50.987Z,10.60
2018-01-05T22:45:18.975Z,10.60
2018-01-05T22:47:47.025Z,10.60
2018-01-05T22:50:15.017Z,10.60
2018-01-05T22:52:43.065Z,10.60
2018-01-05T22:55:11.052Z,10.60
2018-01-05T22:57:39.043Z,10.50
2018-01-05T23:00:08.834Z,10.50
2018-01-05T23:02:36.830Z,10.50
2018-01-05T23:05:05.589Z,10.50
2018-01-05T23:07:33.614Z,10.50
2018-01-05T23:10:01.598Z,10.50
2018-01-05T23:12:29.599Z,10.50
2018-01-05T23:14:57.620Z,10.50
2018-01-05T23:17:25.511Z,10.40
2018-01-05T23:19:53.495Z,10.40
2018-01-05T23:22:21.478Z,10.40
2018-01-05T23:24:49.467Z,10.40
2018-01-05T23:27:18.222Z,10.40
2018-01-05T23:29:46.207Z,10.40
2018-01-05T23:32:14.230Z,10.40
2018-01-05T23:34:42.240Z,10.40
2018-01-05T23:37:10.246Z,10.40
2018-01-05T23:39:38.259Z,10.30
2018-01-05T23:42:06.264Z,10.30
2018-01-05T23:44:35.018Z,10.30
2018-01-05T23:47:03.788Z,10.30
2018-01-05T23:49:31.798Z,10.30
2018-01-05T23:51:59.792Z,10.30
2018-01-05T23:54:28.551Z,10.30
2018-01-05T23:56:56.578Z,10.30
2018-01-05T23:59:24.556Z,10.20
